createdAt,value
2023-04-23T00:01:10.136Z,66.23
2023-04-23T00:03:58.032Z,66.45
2023-04-23T00:06:47.366Z,66.68
2023-04-23T00:09:35.228Z,66.79
2023-04-23T00:12:23.082Z,66.90
2023-04-23T00:15:11.434Z,66.93
2023-04-23T00:17:58.811Z,67.03
2023-04-23T00:20:46.161Z,67.18
2023-04-23T00:23:33.638Z,67.35
2023-04-23T00:26:21.111Z,67.41
2023-04-23T00:29:08.437Z,67.45
2023-04-23T00:31:55.893Z,67.52
2023-04-23T00:34:43.801Z,67.46
2023-04-23T00:37:31.468Z,67.50
2023-04-23T00:40:20.535Z,67.51
2023-04-23T00:43:09.102Z,67.54
2023-04-23T00:45:56.604Z,67.49
2023-04-23T00:48:45.624Z,67.39
2023-04-23T00:51:33.035Z,67.40
2023-04-23T00:54:21.485Z,67.33
2023-04-23T00:57:10.077Z,67.23
2023-04-23T01:05:52.091Z,67.46
2023-04-23T01:08:45.830Z,67.54
2023-04-23T01:11:34.885Z,67.75
2023-04-23T01:14:23.958Z,67.97
2023-04-23T01:17:13.912Z,68.21
2023-04-23T01:20:06.374Z,68.42
2023-04-23T01:22:55.755Z,68.58
2023-04-23T01:25:45.045Z,68.74
2023-04-23T01:28:35.122Z,68.96
2023-04-23T01:31:24.546Z,69.06
2023-04-23T01:34:14.077Z,69.06
2023-04-23T01:37:04.556Z,69.22
2023-04-23T01:39:54.683Z,69.14
2023-04-23T01:42:43.478Z,69.19
2023-04-23T01:45:32.277Z,69.29
2023-04-23T01:48:21.582Z,69.30
2023-04-23T01:51:10.813Z,69.40
2023-04-23T01:53:59.427Z,69.38
2023-04-23T01:56:48.473Z,69.45
2023-04-23T01:59:37.728Z,69.42
2023-04-23T02:02:26.574Z,69.45
2023-04-23T02:05:18.927Z,69.37
2023-04-23T02:08:08.505Z,69.44
2023-04-23T02:21:56.660Z,69.46
2023-04-23T02:24:47.364Z,69.46
2023-04-23T02:27:36.909Z,69.55
2023-04-23T02:30:25.986Z,69.45
2023-04-23T02:33:14.828Z,69.53
2023-04-23T02:36:04.151Z,69.48
2023-04-23T02:38:52.964Z,69.52
2023-04-23T02:41:41.962Z,69.53
2023-04-23T02:44:30.924Z,69.43
2023-04-23T02:47:19.915Z,69.41
2023-04-23T02:50:08.910Z,70.12
2023-04-23T02:52:57.782Z,70.71
2023-04-23T02:55:47.163Z,70.84
2023-04-23T02:58:36.790Z,70.88
2023-04-23T03:01:25.978Z,70.91
2023-04-23T03:04:14.919Z,71.07
2023-04-23T03:07:03.858Z,70.92
2023-04-23T03:09:54.469Z,70.85
2023-04-23T03:12:43.407Z,70.78
2023-04-23T03:15:32.369Z,70.75
2023-04-23T03:18:21.516Z,71.06
2023-04-23T03:21:13.064Z,71.46
2023-04-23T03:24:01.934Z,71.57
2023-04-23T03:26:50.815Z,71.49
2023-04-23T03:29:39.566Z,71.71
2023-04-23T03:32:28.404Z,71.88
2023-04-23T03:35:17.507Z,72.01
2023-04-23T03:38:08.230Z,72.07
2023-04-23T03:40:57.540Z,72.10
2023-04-23T03:43:47.033Z,72.07
2023-04-23T03:46:42.428Z,72.05
2023-04-23T03:49:31.515Z,72.28
2023-04-23T03:52:20.451Z,72.20
2023-04-23T03:55:10.163Z,72.26
2023-04-23T03:58:04.792Z,72.61
2023-04-23T04:01:05.011Z,72.43
2023-04-23T04:03:54.361Z,72.38
2023-04-23T04:06:45.002Z,72.69
2023-04-23T04:09:33.881Z,72.71
2023-04-23T04:12:24.254Z,72.59
2023-04-23T04:15:14.010Z,72.51
2023-04-23T04:18:03.240Z,72.45
2023-04-23T04:20:55.173Z,72.12
2023-04-23T04:23:45.413Z,72.29
2023-04-23T04:26:34.544Z,72.10
2023-04-23T04:29:24.003Z,70.74
2023-04-23T04:32:13.973Z,69.05
2023-04-23T04:35:02.720Z,67.46
2023-04-23T04:37:54.248Z,65.92
2023-04-23T04:40:42.945Z,64.81
2023-04-23T04:43:32.850Z,63.52
2023-04-23T04:46:21.881Z,62.57
2023-04-23T04:49:11.652Z,62.23
2023-04-23T04:52:00.755Z,62.26
2023-04-23T04:54:49.574Z,62.42
2023-04-23T04:57:38.165Z,62.48
2023-04-23T05:00:30.080Z,63.04
2023-04-23T05:03:19.724Z,63.43
2023-04-23T05:06:08.588Z,63.63
2023-04-23T05:08:57.284Z,63.37
2023-04-23T05:11:46.012Z,63.02
2023-04-23T05:14:34.868Z,63.48
2023-04-23T05:17:23.413Z,63.51
2023-04-23T05:20:12.093Z,63.65
2023-04-23T05:23:02.364Z,63.36
2023-04-23T05:25:54.434Z,63.33
2023-04-23T05:28:43.726Z,63.75
2023-04-23T05:31:32.426Z,63.39
2023-04-23T05:34:21.135Z,62.95
2023-04-23T05:37:10.182Z,62.92
2023-04-23T05:39:59.045Z,62.94
2023-04-23T05:42:47.639Z,63.15
2023-04-23T05:45:36.212Z,63.05
2023-04-23T05:48:25.033Z,62.88
2023-04-23T05:51:14.950Z,63.01
2023-04-23T05:54:03.889Z,62.87
2023-04-23T05:56:54.573Z,62.40
2023-04-23T05:59:43.486Z,62.18
2023-04-23T06:02:34.344Z,62.17
2023-04-23T06:05:23.535Z,61.89
2023-04-23T06:08:55.272Z,61.53
2023-04-23T06:11:42.902Z,61.28
2023-04-23T06:15:07.699Z,61.33
2023-04-23T06:17:55.297Z,61.14
2023-04-23T06:20:42.853Z,61.07
2023-04-23T06:23:31.101Z,60.97
2023-04-23T06:26:18.573Z,60.28
2023-04-23T06:29:06.763Z,60.34
2023-04-23T06:32:11.330Z,60.10
2023-04-23T06:35:02.130Z,60.15
2023-04-23T06:37:50.354Z,59.97
2023-04-23T06:40:37.986Z,60.09
2023-04-23T06:43:26.877Z,59.79
2023-04-23T06:46:33.291Z,59.87
2023-04-23T06:49:24.185Z,59.76
2023-04-23T06:52:11.761Z,59.31
2023-04-23T06:54:59.551Z,59.53
2023-04-23T06:57:46.971Z,59.25
2023-04-23T07:00:34.457Z,59.17
2023-04-23T07:03:24.156Z,59.30
2023-04-23T07:06:12.716Z,59.58
2023-04-23T07:09:00.190Z,59.17
2023-04-23T07:11:47.938Z,58.81
2023-04-23T07:14:35.357Z,58.84
2023-04-23T07:17:23.304Z,58.86
2023-04-23T07:20:10.715Z,58.07
2023-04-23T07:22:58.704Z,58.12
2023-04-23T07:25:46.151Z,57.65
2023-04-23T07:28:33.584Z,57.51
2023-04-23T07:31:21.605Z,57.66
2023-04-23T07:34:09.519Z,57.11
2023-04-23T07:36:57.312Z,57.06
2023-04-23T07:39:45.053Z,56.57
2023-04-23T07:42:32.894Z,56.51
2023-04-23T07:45:22.503Z,56.30
2023-04-23T07:48:10.353Z,55.50
2023-04-23T07:50:58.038Z,55.47
2023-04-23T07:53:46.322Z,55.48
2023-04-23T07:56:34.703Z,55.11
2023-04-23T07:59:22.283Z,54.57
2023-04-23T08:02:10.198Z,55.26
2023-04-23T08:04:58.158Z,54.71
2023-04-23T08:07:46.074Z,54.56
2023-04-23T08:10:34.922Z,54.64
2023-04-23T08:13:22.620Z,53.86
2023-04-23T08:16:09.897Z,54.12
2023-04-23T08:19:05.287Z,53.52
2023-04-23T08:21:55.100Z,52.47
2023-04-23T08:24:45.234Z,52.81
2023-04-23T08:27:33.114Z,53.01
2023-04-23T08:30:20.628Z,53.09
2023-04-23T08:33:08.051Z,53.04
2023-04-23T08:35:55.471Z,52.02
2023-04-23T08:38:42.677Z,51.84
2023-04-23T08:41:43.433Z,52.15
2023-04-23T08:44:30.752Z,50.71
2023-04-23T08:47:18.872Z,50.84
2023-04-23T08:50:07.444Z,50.40
2023-04-23T08:52:56.693Z,50.81
2023-04-23T08:55:45.184Z,50.70
2023-04-23T08:58:33.217Z,49.81
2023-04-23T09:01:20.768Z,49.33
2023-04-23T09:04:09.538Z,49.09
2023-04-23T09:06:56.882Z,49.35
2023-04-23T09:09:44.455Z,49.10
2023-04-23T09:12:34.359Z,48.71
2023-04-23T09:15:21.803Z,49.14
2023-04-23T09:18:10.194Z,48.83
2023-04-23T09:20:57.809Z,48.98
2023-04-23T09:23:45.235Z,48.86
2023-04-23T09:26:32.403Z,48.43
2023-04-23T09:29:22.968Z,47.58
2023-04-23T09:32:10.500Z,47.15
2023-04-23T09:34:58.200Z,47.93
2023-04-23T09:37:49.114Z,47.95
2023-04-23T09:40:38.058Z,47.84
2023-04-23T09:43:29.914Z,48.14
2023-04-23T09:46:17.286Z,47.91
2023-04-23T09:49:07.306Z,47.60
2023-04-23T09:51:55.218Z,46.97
2023-04-23T09:54:42.879Z,46.16
2023-04-23T09:57:36.833Z,46.22
2023-04-23T10:00:28.741Z,45.60
2023-04-23T10:03:26.804Z,45.49
2023-04-23T10:06:30.603Z,46.47
2023-04-23T10:09:25.935Z,45.71
2023-04-23T10:15:06.886Z,45.12
2023-04-23T10:17:55.918Z,44.91
2023-04-23T10:20:44.486Z,45.05
2023-04-23T10:23:35.671Z,44.55
2023-04-23T10:26:25.389Z,44.57
2023-04-23T10:29:18.876Z,44.03
2023-04-23T10:32:08.418Z,44.75
2023-04-23T10:34:56.435Z,44.58
2023-04-23T10:37:46.264Z,43.56
2023-04-23T10:40:37.692Z,43.54
2023-04-23T10:43:25.285Z,42.94
2023-04-23T10:46:29.744Z,43.20
2023-04-23T10:49:17.191Z,43.96
2023-04-23T10:52:21.173Z,43.06
2023-04-23T10:55:17.643Z,43.65
2023-04-23T10:58:06.822Z,43.29
2023-04-23T11:00:54.201Z,41.58
2023-04-23T11:03:44.115Z,42.73
2023-04-23T11:06:47.401Z,43.52
2023-04-23T11:09:37.801Z,43.23
2023-04-23T11:12:29.267Z,42.39
2023-04-23T11:15:18.954Z,41.10
2023-04-23T11:18:06.289Z,41.95
2023-04-23T11:20:56.307Z,42.36
2023-04-23T11:23:45.598Z,42.35
2023-04-23T11:26:34.257Z,42.12
2023-04-23T11:29:23.779Z,42.11
2023-04-23T11:32:13.774Z,42.59
2023-04-23T11:35:04.620Z,42.65
2023-04-23T11:37:51.907Z,43.17
2023-04-23T11:40:39.780Z,42.24
2023-04-23T11:43:28.673Z,41.67
2023-04-23T11:46:16.109Z,42.12
2023-04-23T11:49:04.139Z,41.55
2023-04-23T11:51:51.492Z,41.66
2023-04-23T11:54:42.141Z,42.22
2023-04-23T11:57:29.466Z,41.68
2023-04-23T12:00:22.644Z,42.42
2023-04-23T12:03:10.208Z,42.15
2023-04-23T12:05:58.400Z,41.31
2023-04-23T12:08:46.502Z,40.73
2023-04-23T12:11:35.711Z,42.15
2023-04-23T12:14:28.076Z,42.69
2023-04-23T12:17:15.549Z,42.21
2023-04-23T12:20:11.290Z,42.11
2023-04-23T12:23:04.329Z,41.66
2023-04-23T12:25:56.711Z,42.18
2023-04-23T12:28:58.033Z,41.96
2023-04-23T12:31:49.076Z,42.16
2023-04-23T12:34:55.238Z,42.42
2023-04-23T12:37:47.635Z,40.87
2023-04-23T12:40:35.083Z,41.72
2023-04-23T12:43:23.767Z,41.58
2023-04-23T12:46:11.133Z,41.56
2023-04-23T12:48:58.474Z,41.49
2023-04-23T12:51:45.981Z,40.88
2023-04-23T12:54:38.268Z,40.82
2023-04-23T12:57:26.480Z,42.04
2023-04-23T13:00:14.339Z,42.23
2023-04-23T13:03:02.453Z,42.10
2023-04-23T13:05:49.958Z,40.72
2023-04-23T13:08:37.247Z,40.96
2023-04-23T13:11:24.738Z,41.34
2023-04-23T13:14:12.731Z,41.83
2023-04-23T13:17:00.615Z,41.94
2023-04-23T13:19:48.228Z,42.16
2023-04-23T13:22:37.069Z,43.11
2023-04-23T13:25:27.049Z,42.94
2023-04-23T13:28:17.763Z,42.04
2023-04-23T13:31:07.402Z,41.23
2023-04-23T13:33:57.500Z,41.56
2023-04-23T13:36:46.563Z,41.86
2023-04-23T13:39:35.931Z,43.09
2023-04-23T13:42:23.798Z,43.04
2023-04-23T13:45:14.119Z,42.15
2023-04-23T13:48:08.369Z,42.92
2023-04-23T13:51:01.329Z,41.97
2023-04-23T13:53:49.330Z,42.36
2023-04-23T13:56:37.313Z,42.65
2023-04-23T13:59:25.486Z,42.13
2023-04-23T14:02:15.882Z,42.02
2023-04-23T14:05:04.950Z,40.69
2023-04-23T14:07:52.358Z,41.65
2023-04-23T14:10:41.786Z,41.99
2023-04-23T14:13:32.124Z,42.10
2023-04-23T14:16:19.284Z,41.85
2023-04-23T14:19:06.769Z,42.25
2023-04-23T14:21:56.120Z,41.51
2023-04-23T14:24:50.465Z,41.57
2023-04-23T14:27:45.405Z,42.03
2023-04-23T14:30:33.948Z,41.87
2023-04-23T14:33:21.491Z,41.70
2023-04-23T14:36:08.922Z,42.00
2023-04-23T14:38:58.546Z,41.20
2023-04-23T14:41:45.825Z,41.37
2023-04-23T14:44:33.280Z,41.40
2023-04-23T14:47:20.988Z,42.29
2023-04-23T14:50:08.658Z,42.19
2023-04-23T14:52:58.181Z,42.35
2023-04-23T14:55:46.191Z,42.88
2023-04-23T14:58:36.208Z,42.71
2023-04-23T15:01:23.799Z,42.87
2023-04-23T15:04:11.359Z,43.18
2023-04-23T15:06:58.715Z,42.99
2023-04-23T15:09:46.262Z,42.73
2023-04-23T15:12:39.470Z,42.60
2023-04-23T15:15:43.666Z,42.84
2023-04-23T15:18:33.215Z,42.88
2023-04-23T15:21:20.555Z,42.86
2023-04-23T15:24:07.965Z,42.92
2023-04-23T15:26:57.388Z,42.93
2023-04-23T15:29:45.129Z,42.87
2023-04-23T15:32:33.100Z,42.36
2023-04-23T15:35:24.856Z,42.18
2023-04-23T15:38:12.403Z,42.33
2023-04-23T15:41:00.281Z,42.21
2023-04-23T15:43:49.632Z,42.13
2023-04-23T15:46:36.940Z,42.57
2023-04-23T15:49:24.345Z,42.60
2023-04-23T15:52:11.709Z,42.63
2023-04-23T15:54:59.832Z,42.46
2023-04-23T15:57:47.246Z,42.68
2023-04-23T16:00:35.500Z,42.58
2023-04-23T16:03:23.230Z,43.03
2023-04-23T16:06:12.483Z,43.04
2023-04-23T16:09:00.886Z,43.37
2023-04-23T16:11:48.972Z,43.45
2023-04-23T16:14:36.449Z,43.93
2023-04-23T16:17:23.995Z,43.30
2023-04-23T16:20:11.834Z,43.50
2023-04-23T16:22:59.164Z,43.48
2023-04-23T16:25:46.447Z,43.70
2023-04-23T16:28:36.748Z,43.90
2023-04-23T16:31:24.462Z,43.84
2023-04-23T16:34:11.836Z,43.55
2023-04-23T16:36:59.072Z,44.14
2023-04-23T16:39:46.425Z,44.49
2023-04-23T16:42:33.751Z,44.89
2023-04-23T16:45:22.316Z,45.26
2023-04-23T16:48:13.428Z,45.68
2023-04-23T16:51:03.012Z,46.30
2023-04-23T16:53:53.257Z,46.57
2023-04-23T16:56:41.642Z,46.95
2023-04-23T16:59:29.257Z,47.25
2023-04-23T17:02:19.275Z,47.53
2023-04-23T17:05:07.631Z,47.81
2023-04-23T17:07:55.381Z,48.12
2023-04-23T17:10:43.398Z,48.19
2023-04-23T17:13:30.680Z,48.46
2023-04-23T17:16:18.912Z,48.68
2023-04-23T17:19:06.575Z,49.01
2023-04-23T17:21:54.184Z,49.20
2023-04-23T17:24:41.790Z,49.72
2023-04-23T17:27:29.182Z,49.99
2023-04-23T17:30:16.477Z,50.43
2023-04-23T17:33:04.054Z,50.85
2023-04-23T17:35:52.912Z,51.18
2023-04-23T17:38:40.988Z,51.36
2023-04-23T17:41:28.401Z,51.71
2023-04-23T17:44:15.826Z,52.31
2023-04-23T17:47:03.437Z,52.66
2023-04-23T17:49:51.028Z,52.94
2023-04-23T17:52:40.406Z,53.72
2023-04-23T17:55:28.532Z,53.94
2023-04-23T17:58:15.943Z,54.21
2023-04-23T18:01:03.517Z,54.88
2023-04-23T18:03:51.009Z,55.02
2023-04-23T18:06:38.659Z,55.45
2023-04-23T18:09:26.331Z,55.83
2023-04-23T18:12:13.595Z,56.12
2023-04-23T18:15:01.145Z,56.42
2023-04-23T18:17:49.712Z,56.82
2023-04-23T18:20:38.690Z,57.00
2023-04-23T18:23:26.524Z,56.91
2023-04-23T18:26:16.991Z,57.65
2023-04-23T18:29:04.244Z,57.70
2023-04-23T18:31:53.113Z,57.94
2023-04-23T18:34:42.750Z,58.19
2023-04-23T18:37:33.287Z,58.45
2023-04-23T18:40:21.015Z,58.85
2023-04-23T18:43:08.183Z,59.29
2023-04-23T18:45:56.305Z,59.67
2023-04-23T18:48:52.328Z,59.85
2023-04-23T18:51:45.214Z,60.00
2023-04-23T18:54:35.358Z,60.08
2023-04-23T18:57:22.604Z,60.19
2023-04-23T19:00:10.340Z,60.58
2023-04-23T19:02:58.216Z,60.61
2023-04-23T19:05:45.790Z,60.86
2023-04-23T19:08:36.372Z,60.57
2023-04-23T19:11:23.961Z,60.85
2023-04-23T19:14:11.738Z,61.08
2023-04-23T19:16:58.921Z,61.42
2023-04-23T19:19:46.315Z,61.68
2023-04-23T19:22:33.577Z,61.80
2023-04-23T19:25:22.031Z,61.94
2023-04-23T19:28:09.526Z,62.11
2023-04-23T19:30:57.117Z,62.45
2023-04-23T19:33:45.660Z,62.50
2023-04-23T19:36:33.028Z,62.80
2023-04-23T19:39:22.755Z,62.77
2023-04-23T19:42:10.354Z,63.21
2023-04-23T19:44:57.674Z,63.45
2023-04-23T19:47:45.209Z,63.50
2023-04-23T19:50:33.538Z,63.68
2023-04-23T19:53:21.246Z,63.71
2023-04-23T19:56:12.450Z,63.83
2023-04-23T19:58:59.934Z,64.20
2023-04-23T20:01:47.625Z,64.37
2023-04-23T20:04:35.170Z,64.56
2023-04-23T20:07:22.625Z,64.86
2023-04-23T20:10:10.563Z,64.95
2023-04-23T20:12:59.124Z,65.10
2023-04-23T20:15:49.352Z,65.20
2023-04-23T20:18:38.542Z,65.24
2023-04-23T20:21:26.315Z,65.55
2023-04-23T20:24:13.696Z,65.57
2023-04-23T20:27:02.120Z,65.86
2023-04-23T20:29:49.670Z,65.95
2023-04-23T20:32:36.964Z,65.83
2023-04-23T20:35:24.387Z,65.96
2023-04-23T20:38:12.673Z,66.04
2023-04-23T20:41:02.063Z,66.26
2023-04-23T20:43:50.150Z,66.27
2023-04-23T20:46:38.015Z,66.45
2023-04-23T20:49:25.433Z,66.60
2023-04-23T20:52:13.996Z,66.86
2023-04-23T20:55:01.455Z,67.00
2023-04-23T20:57:48.756Z,66.91
2023-04-23T21:00:39.411Z,67.30
2023-04-23T21:03:27.075Z,67.22
2023-04-23T21:06:14.781Z,67.62
2023-04-23T21:09:02.279Z,67.57
2023-04-23T21:11:50.423Z,67.75
2023-04-23T21:14:37.942Z,67.80
2023-04-23T21:17:25.308Z,67.99
2023-04-23T21:20:12.928Z,68.24
2023-04-23T21:23:00.578Z,68.48
2023-04-23T21:25:47.869Z,68.69
2023-04-23T21:28:36.509Z,68.78
2023-04-23T21:31:43.306Z,68.89
2023-04-23T21:34:30.943Z,69.03
2023-04-23T21:37:18.303Z,69.04
2023-04-23T21:40:06.926Z,69.15
2023-04-23T21:42:54.257Z,69.31
2023-04-23T21:45:41.674Z,69.35
2023-04-23T21:48:31.301Z,69.41
2023-04-23T21:51:22.376Z,69.74
2023-04-23T21:54:10.029Z,69.86
2023-04-23T21:56:57.376Z,70.04
2023-04-23T21:59:44.790Z,70.17
2023-04-23T22:02:32.247Z,70.40
2023-04-23T22:05:20.129Z,70.53
2023-04-23T22:08:09.040Z,70.62
2023-04-23T22:10:56.567Z,70.86
2023-04-23T22:13:43.963Z,70.96
2023-04-23T22:16:33.561Z,70.94
2023-04-23T22:19:21.122Z,71.14
2023-04-23T22:22:08.393Z,70.99
2023-04-23T22:24:55.762Z,71.07
2023-04-23T22:27:43.064Z,71.22
2023-04-23T22:30:30.336Z,71.41
2023-04-23T22:33:17.684Z,71.34
2023-04-23T22:36:05.087Z,71.17
2023-04-23T22:38:52.348Z,71.37
2023-04-23T22:41:39.689Z,71.49
2023-04-23T22:44:26.770Z,71.71
2023-04-23T22:47:14.124Z,71.74
2023-04-23T22:50:01.583Z,71.77
2023-04-23T22:52:49.146Z,71.92
2023-04-23T22:55:36.634Z,72.14
2023-04-23T22:58:23.905Z,72.13
2023-04-23T23:01:11.679Z,72.17
2023-04-23T23:03:59.396Z,72.23
2023-04-23T23:06:47.035Z,72.30
2023-04-23T23:09:34.625Z,72.38
2023-04-23T23:12:21.921Z,72.51
2023-04-23T23:15:09.736Z,72.43
2023-04-23T23:17:57.127Z,72.48
2023-04-23T23:20:44.709Z,72.43
2023-04-23T23:23:32.047Z,72.69
2023-04-23T23:26:19.962Z,72.89
2023-04-23T23:29:07.489Z,72.93
2023-04-23T23:31:56.830Z,72.98
2023-04-23T23:34:43.968Z,73.01
2023-04-23T23:37:31.595Z,72.91
2023-04-23T23:40:18.810Z,72.78
2023-04-23T23:43:06.538Z,72.84
2023-04-23T23:45:53.663Z,73.41
2023-04-23T23:48:40.962Z,73.55
2023-04-23T23:51:28.420Z,73.41
2023-04-23T23:54:15.793Z,73.50
2023-04-23T23:57:03.508Z,73.45
2023-04-23T23:59:50.981Z,73.63
